Perrytown, Mississippi
Current Conditions -  °F | °C
As of 6:15 PM on Sunday 23 Nov 2014 (Local Time) from KHEZ Reporting Station
Clear Clear  
Wind Chill: 66°   Ceiling: Unl
Heat Index: 66°   Visibility: 10mi
Dew Point: 54°   Wind: 8mph
Humidity: 64%   Direction: 190°S
Pressure: 29.58"   Gusts: 17mph
Location:  31.312°N, 90.9827°W
Report Text: KHEZ 240015Z AUTO 19007G15KT 10SM CLR 19/12 A2958 RMK AO1
Loading
Personal Weather Stations






























Interactive Weather Map New forecast layout! Learn more

10-Day Weather Forecast

Advertisements
Track Severe Weather on mobile